sensor_id;sensor_type;location;lat;lon;timestamp;P1;durP1;ratioP1;P2;durP2;ratioP2
27758;SDS011;15148;48.972;12.794;2023-07-31T00:04:24;8.88;;;3.88;;
27758;SDS011;15148;48.972;12.794;2023-07-31T00:09:26;6.78;;;3.00;;
27758;SDS011;15148;48.972;12.794;2023-07-31T00:14:28;8.55;;;3.30;;
27758;SDS011;15148;48.972;12.794;2023-07-31T00:19:30;5.13;;;3.45;;
27758;SDS011;15148;48.972;12.794;2023-07-31T00:24:31;6.60;;;2.97;;
27758;SDS011;15148;48.972;12.794;2023-07-31T00:29:33;5.45;;;3.00;;
27758;SDS011;15148;48.972;12.794;2023-07-31T00:34:35;4.80;;;2.72;;
27758;SDS011;15148;48.972;12.794;2023-07-31T00:39:37;7.35;;;3.15;;
27758;SDS011;15148;48.972;12.794;2023-07-31T00:44:39;7.70;;;2.78;;
27758;SDS011;15148;48.972;12.794;2023-07-31T00:49:41;5.70;;;2.70;;
27758;SDS011;15148;48.972;12.794;2023-07-31T00:54:42;4.22;;;2.65;;
27758;SDS011;15148;48.972;12.794;2023-07-31T00:59:44;3.80;;;3.17;;
27758;SDS011;15148;48.972;12.794;2023-07-31T01:04:48;7.70;;;2.80;;
27758;SDS011;15148;48.972;12.794;2023-07-31T01:10:04;5.78;;;3.00;;
27758;SDS011;15148;48.972;12.794;2023-07-31T01:15:17;5.63;;;2.88;;
27758;SDS011;15148;48.972;12.794;2023-07-31T01:20:22;5.82;;;2.90;;
27758;SDS011;15148;48.972;12.794;2023-07-31T01:25:32;5.80;;;3.17;;
27758;SDS011;15148;48.972;12.794;2023-07-31T01:30:37;7.50;;;3.00;;
27758;SDS011;15148;48.972;12.794;2023-07-31T01:35:44;6.45;;;2.88;;
27758;SDS011;15148;48.972;12.794;2023-07-31T01:40:51;4.90;;;2.80;;
27758;SDS011;15148;48.972;12.794;2023-07-31T01:45:54;6.78;;;2.80;;
27758;SDS011;15148;48.972;12.794;2023-07-31T01:51:00;5.25;;;2.85;;
27758;SDS011;15148;48.972;12.794;2023-07-31T01:56:02;5.32;;;3.15;;
27758;SDS011;15148;48.972;12.794;2023-07-31T02:01:04;4.47;;;2.60;;
27758;SDS011;15148;48.972;12.794;2023-07-31T02:06:08;4.70;;;2.42;;
27758;SDS011;15148;48.972;12.794;2023-07-31T02:11:10;5.72;;;2.70;;
27758;SDS011;15148;48.972;12.794;2023-07-31T02:16:12;6.10;;;2.78;;
27758;SDS011;15148;48.972;12.794;2023-07-31T02:21:14;5.15;;;2.85;;
27758;SDS011;15148;48.972;12.794;2023-07-31T02:26:16;6.43;;;2.60;;
27758;SDS011;15148;48.972;12.794;2023-07-31T02:31:18;4.43;;;2.70;;
27758;SDS011;15148;48.972;12.794;2023-07-31T02:36:23;7.07;;;3.22;;
27758;SDS011;15148;48.972;12.794;2023-07-31T02:41:25;3.80;;;2.53;;
27758;SDS011;15148;48.972;12.794;2023-07-31T02:46:27;3.22;;;2.42;;
27758;SDS011;15148;48.972;12.794;2023-07-31T02:51:29;4.00;;;2.40;;
27758;SDS011;15148;48.972;12.794;2023-07-31T02:56:31;3.78;;;2.55;;
27758;SDS011;15148;48.972;12.794;2023-07-31T03:01:33;4.88;;;2.58;;
27758;SDS011;15148;48.972;12.794;2023-07-31T03:06:34;7.05;;;2.70;;
27758;SDS011;15148;48.972;12.794;2023-07-31T03:11:37;4.07;;;2.53;;
27758;SDS011;15148;48.972;12.794;2023-07-31T03:16:38;4.53;;;2.72;;
27758;SDS011;15148;48.972;12.794;2023-07-31T03:21:41;4.00;;;2.28;;
27758;SDS011;15148;48.972;12.794;2023-07-31T03:26:43;7.05;;;3.03;;
27758;SDS011;15148;48.972;12.794;2023-07-31T03:31:45;4.45;;;3.03;;
27758;SDS011;15148;48.972;12.794;2023-07-31T03:36:46;4.68;;;3.00;;
27758;SDS011;15148;48.972;12.794;2023-07-31T03:41:48;3.95;;;2.60;;
27758;SDS011;15148;48.972;12.794;2023-07-31T03:46:51;4.15;;;2.70;;
27758;SDS011;15148;48.972;12.794;2023-07-31T03:51:53;2.83;;;2.25;;
27758;SDS011;15148;48.972;12.794;2023-07-31T03:56:55;7.25;;;3.10;;
27758;SDS011;15148;48.972;12.794;2023-07-31T04:01:57;4.90;;;2.78;;
27758;SDS011;15148;48.972;12.794;2023-07-31T04:06:59;5.25;;;2.60;;
27758;SDS011;15148;48.972;12.794;2023-07-31T04:12:01;4.07;;;2.40;;
27758;SDS011;15148;48.972;12.794;2023-07-31T04:17:03;6.53;;;3.08;;
27758;SDS011;15148;48.972;12.794;2023-07-31T04:22:05;5.18;;;2.83;;
27758;SDS011;15148;48.972;12.794;2023-07-31T04:27:07;5.32;;;2.88;;
27758;SDS011;15148;48.972;12.794;2023-07-31T04:32:08;5.47;;;3.05;;
27758;SDS011;15148;48.972;12.794;2023-07-31T04:37:10;2.63;;;2.15;;
27758;SDS011;15148;48.972;12.794;2023-07-31T04:42:12;4.60;;;3.15;;
27758;SDS011;15148;48.972;12.794;2023-07-31T04:47:14;7.95;;;2.92;;
27758;SDS011;15148;48.972;12.794;2023-07-31T04:52:16;6.22;;;3.38;;
27758;SDS011;15148;48.972;12.794;2023-07-31T04:57:18;6.60;;;3.60;;
27758;SDS011;15148;48.972;12.794;2023-07-31T05:02:19;5.80;;;3.67;;
27758;SDS011;15148;48.972;12.794;2023-07-31T05:07:21;4.53;;;3.28;;
27758;SDS011;15148;48.972;12.794;2023-07-31T05:12:23;3.95;;;2.72;;
27758;SDS011;15148;48.972;12.794;2023-07-31T05:17:25;8.55;;;2.97;;
27758;SDS011;15148;48.972;12.794;2023-07-31T05:22:27;5.10;;;2.83;;
27758;SDS011;15148;48.972;12.794;2023-07-31T05:27:29;4.68;;;2.75;;
27758;SDS011;15148;48.972;12.794;2023-07-31T05:32:31;3.00;;;2.50;;
27758;SDS011;15148;48.972;12.794;2023-07-31T05:37:33;4.45;;;2.63;;
27758;SDS011;15148;48.972;12.794;2023-07-31T05:42:35;5.13;;;2.55;;
27758;SDS011;15148;48.972;12.794;2023-07-31T05:47:39;3.50;;;2.13;;
27758;SDS011;15148;48.972;12.794;2023-07-31T05:52:41;3.33;;;2.67;;
27758;SDS011;15148;48.972;12.794;2023-07-31T05:57:43;6.10;;;2.58;;
27758;SDS011;15148;48.972;12.794;2023-07-31T06:02:47;2.75;;;2.30;;
27758;SDS011;15148;48.972;12.794;2023-07-31T06:07:49;4.78;;;2.53;;
27758;SDS011;15148;48.972;12.794;2023-07-31T06:12:51;3.28;;;1.92;;
27758;SDS011;15148;48.972;12.794;2023-07-31T06:17:52;3.80;;;2.30;;
27758;SDS011;15148;48.972;12.794;2023-07-31T06:22:55;3.60;;;2.20;;
27758;SDS011;15148;48.972;12.794;2023-07-31T06:27:57;3.53;;;1.90;;
27758;SDS011;15148;48.972;12.794;2023-07-31T06:32:59;4.00;;;2.05;;
27758;SDS011;15148;48.972;12.794;2023-07-31T06:38:01;3.03;;;1.80;;
27758;SDS011;15148;48.972;12.794;2023-07-31T06:43:03;3.85;;;2.08;;
27758;SDS011;15148;48.972;12.794;2023-07-31T06:48:09;2.85;;;1.90;;
27758;SDS011;15148;48.972;12.794;2023-07-31T06:53:12;4.82;;;2.45;;
27758;SDS011;15148;48.972;12.794;2023-07-31T06:58:14;4.53;;;1.52;;
27758;SDS011;15148;48.972;12.794;2023-07-31T07:03:17;3.58;;;2.10;;
27758;SDS011;15148;48.972;12.794;2023-07-31T07:08:19;2.53;;;1.98;;
27758;SDS011;15148;48.972;12.794;2023-07-31T07:13:21;4.22;;;2.70;;
27758;SDS011;15148;48.972;12.794;2023-07-31T07:18:23;3.70;;;1.85;;
27758;SDS011;15148;48.972;12.794;2023-07-31T07:23:25;2.47;;;1.98;;
27758;SDS011;15148;48.972;12.794;2023-07-31T07:28:27;4.18;;;1.85;;
27758;SDS011;15148;48.972;12.794;2023-07-31T07:33:30;3.00;;;1.90;;
27758;SDS011;15148;48.972;12.794;2023-07-31T07:38:31;5.30;;;1.92;;
27758;SDS011;15148;48.972;12.794;2023-07-31T07:43:34;2.95;;;2.03;;
27758;SDS011;15148;48.972;12.794;2023-07-31T07:48:36;4.32;;;2.17;;
27758;SDS011;15148;48.972;12.794;2023-07-31T07:53:37;3.88;;;2.45;;
27758;SDS011;15148;48.972;12.794;2023-07-31T07:58:39;4.78;;;2.25;;
27758;SDS011;15148;48.972;12.794;2023-07-31T08:03:41;4.93;;;2.42;;
27758;SDS011;15148;48.972;12.794;2023-07-31T08:08:43;2.42;;;1.80;;
27758;SDS011;15148;48.972;12.794;2023-07-31T08:13:45;4.43;;;2.38;;
27758;SDS011;15148;48.972;12.794;2023-07-31T08:18:47;5.72;;;2.50;;
27758;SDS011;15148;48.972;12.794;2023-07-31T08:23:50;8.02;;;2.95;;
27758;SDS011;15148;48.972;12.794;2023-07-31T08:28:52;3.88;;;2.22;;
27758;SDS011;15148;48.972;12.794;2023-07-31T08:33:54;10.35;;;2.85;;
27758;SDS011;15148;48.972;12.794;2023-07-31T08:38:55;3.92;;;2.47;;
27758;SDS011;15148;48.972;12.794;2023-07-31T08:43:57;5.82;;;2.95;;
27758;SDS011;15148;48.972;12.794;2023-07-31T08:49:01;6.55;;;2.60;;
27758;SDS011;15148;48.972;12.794;2023-07-31T08:54:07;4.45;;;2.38;;
27758;SDS011;15148;48.972;12.794;2023-07-31T08:59:09;5.63;;;2.78;;
27758;SDS011;15148;48.972;12.794;2023-07-31T09:04:13;3.67;;;2.30;;
27758;SDS011;15148;48.972;12.794;2023-07-31T09:09:17;3.75;;;3.03;;
27758;SDS011;15148;48.972;12.794;2023-07-31T09:14:21;3.25;;;2.40;;
27758;SDS011;15148;48.972;12.794;2023-07-31T09:19:26;3.75;;;2.58;;
27758;SDS011;15148;48.972;12.794;2023-07-31T09:24:29;5.03;;;2.70;;
27758;SDS011;15148;48.972;12.794;2023-07-31T09:29:33;5.88;;;2.40;;
27758;SDS011;15148;48.972;12.794;2023-07-31T09:34:38;3.83;;;2.20;;
27758;SDS011;15148;48.972;12.794;2023-07-31T09:39:48;3.97;;;2.15;;
27758;SDS011;15148;48.972;12.794;2023-07-31T09:44:56;5.30;;;2.40;;
27758;SDS011;15148;48.972;12.794;2023-07-31T09:50:11;3.90;;;2.28;;
27758;SDS011;15148;48.972;12.794;2023-07-31T09:55:12;4.85;;;2.33;;
27758;SDS011;15148;48.972;12.794;2023-07-31T10:00:18;6.07;;;2.25;;
27758;SDS011;15148;48.972;12.794;2023-07-31T10:05:21;6.22;;;2.33;;
27758;SDS011;15148;48.972;12.794;2023-07-31T10:10:23;2.67;;;1.90;;
27758;SDS011;15148;48.972;12.794;2023-07-31T10:15:27;4.10;;;2.20;;
27758;SDS011;15148;48.972;12.794;2023-07-31T10:20:30;4.03;;;2.53;;
27758;SDS011;15148;48.972;12.794;2023-07-31T10:25:32;2.78;;;2.30;;
27758;SDS011;15148;48.972;12.794;2023-07-31T10:30:35;3.63;;;2.08;;
27758;SDS011;15148;48.972;12.794;2023-07-31T10:35:39;3.30;;;2.50;;
27758;SDS011;15148;48.972;12.794;2023-07-31T10:40:41;7.72;;;2.45;;
27758;SDS011;15148;48.972;12.794;2023-07-31T10:45:43;5.70;;;2.35;;
27758;SDS011;15148;48.972;12.794;2023-07-31T10:50:54;2.92;;;2.25;;
27758;SDS011;15148;48.972;12.794;2023-07-31T10:56:00;4.82;;;2.70;;
27758;SDS011;15148;48.972;12.794;2023-07-31T11:01:04;3.87;;;2.30;;
27758;SDS011;15148;48.972;12.794;2023-07-31T11:06:07;11.30;;;2.92;;
27758;SDS011;15148;48.972;12.794;2023-07-31T11:11:10;4.13;;;2.33;;
27758;SDS011;15148;48.972;12.794;2023-07-31T11:16:13;6.18;;;2.70;;
27758;SDS011;15148;48.972;12.794;2023-07-31T11:21:16;5.43;;;2.67;;
27758;SDS011;15148;48.972;12.794;2023-07-31T11:26:19;4.55;;;3.10;;
27758;SDS011;15148;48.972;12.794;2023-07-31T11:31:21;3.13;;;2.50;;
27758;SDS011;15148;48.972;12.794;2023-07-31T11:36:23;4.10;;;2.40;;
27758;SDS011;15148;48.972;12.794;2023-07-31T11:41:25;3.97;;;2.75;;
27758;SDS011;15148;48.972;12.794;2023-07-31T11:46:33;3.97;;;2.53;;
27758;SDS011;15148;48.972;12.794;2023-07-31T11:51:35;5.10;;;2.70;;
27758;SDS011;15148;48.972;12.794;2023-07-31T11:56:37;3.92;;;2.40;;
27758;SDS011;15148;48.972;12.794;2023-07-31T12:01:40;5.95;;;2.33;;
27758;SDS011;15148;48.972;12.794;2023-07-31T12:06:42;2.83;;;2.28;;
27758;SDS011;15148;48.972;12.794;2023-07-31T12:11:45;3.95;;;2.00;;
27758;SDS011;15148;48.972;12.794;2023-07-31T12:16:52;4.38;;;2.72;;
27758;SDS011;15148;48.972;12.794;2023-07-31T12:22:02;3.70;;;2.65;;
27758;SDS011;15148;48.972;12.794;2023-07-31T12:27:14;7.22;;;2.70;;
27758;SDS011;15148;48.972;12.794;2023-07-31T12:32:20;3.30;;;2.13;;
27758;SDS011;15148;48.972;12.794;2023-07-31T12:37:25;3.25;;;2.53;;
27758;SDS011;15148;48.972;12.794;2023-07-31T12:42:27;4.95;;;2.60;;
27758;SDS011;15148;48.972;12.794;2023-07-31T12:47:29;4.20;;;2.33;;
27758;SDS011;15148;48.972;12.794;2023-07-31T12:52:31;3.88;;;2.38;;
27758;SDS011;15148;48.972;12.794;2023-07-31T12:57:33;3.03;;;2.25;;
27758;SDS011;15148;48.972;12.794;2023-07-31T13:02:37;5.35;;;2.40;;
27758;SDS011;15148;48.972;12.794;2023-07-31T13:07:39;5.07;;;2.45;;
27758;SDS011;15148;48.972;12.794;2023-07-31T13:12:42;5.75;;;4.45;;
27758;SDS011;15148;48.972;12.794;2023-07-31T13:17:43;3.17;;;2.38;;
27758;SDS011;15148;48.972;12.794;2023-07-31T13:22:46;2.78;;;2.22;;
27758;SDS011;15148;48.972;12.794;2023-07-31T13:27:48;4.60;;;2.92;;
27758;SDS011;15148;48.972;12.794;2023-07-31T13:32:50;4.68;;;2.03;;
27758;SDS011;15148;48.972;12.794;2023-07-31T13:37:52;3.50;;;2.20;;
27758;SDS011;15148;48.972;12.794;2023-07-31T13:42:54;2.90;;;2.40;;
27758;SDS011;15148;48.972;12.794;2023-07-31T13:47:57;3.10;;;2.38;;
27758;SDS011;15148;48.972;12.794;2023-07-31T13:52:58;4.22;;;2.30;;
27758;SDS011;15148;48.972;12.794;2023-07-31T13:58:00;3.92;;;2.50;;
27758;SDS011;15148;48.972;12.794;2023-07-31T14:03:03;2.60;;;2.30;;
27758;SDS011;15148;48.972;12.794;2023-07-31T14:08:05;4.20;;;2.40;;
27758;SDS011;15148;48.972;12.794;2023-07-31T14:13:07;5.65;;;2.60;;
27758;SDS011;15148;48.972;12.794;2023-07-31T14:18:09;3.35;;;2.47;;
27758;SDS011;15148;48.972;12.794;2023-07-31T14:23:11;4.82;;;2.33;;
27758;SDS011;15148;48.972;12.794;2023-07-31T14:28:13;2.78;;;2.10;;
27758;SDS011;15148;48.972;12.794;2023-07-31T14:33:14;4.82;;;2.13;;
27758;SDS011;15148;48.972;12.794;2023-07-31T14:38:16;3.60;;;2.22;;
27758;SDS011;15148;48.972;12.794;2023-07-31T14:43:18;2.90;;;2.47;;
27758;SDS011;15148;48.972;12.794;2023-07-31T14:48:20;4.90;;;2.60;;
27758;SDS011;15148;48.972;12.794;2023-07-31T14:53:22;5.70;;;2.85;;
27758;SDS011;15148;48.972;12.794;2023-07-31T14:58:24;2.72;;;2.47;;
27758;SDS011;15148;48.972;12.794;2023-07-31T15:03:26;4.95;;;2.80;;
27758;SDS011;15148;48.972;12.794;2023-07-31T15:08:28;3.30;;;2.20;;
27758;SDS011;15148;48.972;12.794;2023-07-31T15:13:30;4.70;;;2.97;;
27758;SDS011;15148;48.972;12.794;2023-07-31T15:18:32;4.07;;;2.42;;
27758;SDS011;15148;48.972;12.794;2023-07-31T15:23:34;2.90;;;2.60;;
27758;SDS011;15148;48.972;12.794;2023-07-31T15:28:35;4.28;;;3.03;;
27758;SDS011;15148;48.972;12.794;2023-07-31T15:33:38;6.53;;;3.58;;
27758;SDS011;15148;48.972;12.794;2023-07-31T15:38:40;5.75;;;3.08;;
27758;SDS011;15148;48.972;12.794;2023-07-31T15:43:42;4.82;;;3.08;;
27758;SDS011;15148;48.972;12.794;2023-07-31T15:48:44;5.93;;;3.10;;
27758;SDS011;15148;48.972;12.794;2023-07-31T15:53:46;4.25;;;2.97;;
27758;SDS011;15148;48.972;12.794;2023-07-31T15:58:48;5.75;;;3.22;;
27758;SDS011;15148;48.972;12.794;2023-07-31T16:03:51;5.40;;;3.85;;
27758;SDS011;15148;48.972;12.794;2023-07-31T16:08:54;6.03;;;3.83;;
27758;SDS011;15148;48.972;12.794;2023-07-31T16:13:57;4.85;;;3.47;;
27758;SDS011;15148;48.972;12.794;2023-07-31T16:19:00;6.60;;;3.05;;
27758;SDS011;15148;48.972;12.794;2023-07-31T16:24:01;5.50;;;3.08;;
27758;SDS011;15148;48.972;12.794;2023-07-31T16:29:03;4.97;;;3.15;;
27758;SDS011;15148;48.972;12.794;2023-07-31T16:34:05;5.65;;;3.33;;
27758;SDS011;15148;48.972;12.794;2023-07-31T16:39:07;7.97;;;3.38;;
27758;SDS011;15148;48.972;12.794;2023-07-31T16:44:09;5.32;;;3.05;;
27758;SDS011;15148;48.972;12.794;2023-07-31T16:49:14;5.07;;;3.65;;
27758;SDS011;15148;48.972;12.794;2023-07-31T16:54:16;8.55;;;3.75;;
27758;SDS011;15148;48.972;12.794;2023-07-31T16:59:18;6.30;;;3.08;;
27758;SDS011;15148;48.972;12.794;2023-07-31T17:04:21;4.70;;;3.40;;
27758;SDS011;15148;48.972;12.794;2023-07-31T17:09:26;5.30;;;2.97;;
27758;SDS011;15148;48.972;12.794;2023-07-31T17:14:28;6.65;;;3.15;;
27758;SDS011;15148;48.972;12.794;2023-07-31T17:19:30;7.47;;;3.15;;
27758;SDS011;15148;48.972;12.794;2023-07-31T17:24:32;6.03;;;3.75;;
27758;SDS011;15148;48.972;12.794;2023-07-31T17:29:34;9.02;;;3.13;;
27758;SDS011;15148;48.972;12.794;2023-07-31T17:34:36;6.15;;;3.00;;
27758;SDS011;15148;48.972;12.794;2023-07-31T17:39:38;4.22;;;2.97;;
27758;SDS011;15148;48.972;12.794;2023-07-31T17:44:40;8.32;;;3.38;;
27758;SDS011;15148;48.972;12.794;2023-07-31T17:49:42;5.63;;;3.60;;
27758;SDS011;15148;48.972;12.794;2023-07-31T17:54:44;4.95;;;4.22;;
27758;SDS011;15148;48.972;12.794;2023-07-31T17:59:46;5.47;;;4.72;;
27758;SDS011;15148;48.972;12.794;2023-07-31T18:04:50;7.05;;;4.97;;
27758;SDS011;15148;48.972;12.794;2023-07-31T18:09:52;6.80;;;3.08;;
27758;SDS011;15148;48.972;12.794;2023-07-31T18:14:54;6.75;;;3.28;;
27758;SDS011;15148;48.972;12.794;2023-07-31T18:19:56;6.97;;;3.60;;
27758;SDS011;15148;48.972;12.794;2023-07-31T18:24:58;8.00;;;3.53;;
27758;SDS011;15148;48.972;12.794;2023-07-31T18:30:00;6.35;;;3.92;;
27758;SDS011;15148;48.972;12.794;2023-07-31T18:35:02;7.53;;;4.55;;
27758;SDS011;15148;48.972;12.794;2023-07-31T18:40:05;9.13;;;3.90;;
27758;SDS011;15148;48.972;12.794;2023-07-31T18:45:07;6.18;;;3.53;;
27758;SDS011;15148;48.972;12.794;2023-07-31T18:50:11;7.95;;;3.20;;
27758;SDS011;15148;48.972;12.794;2023-07-31T18:55:13;5.43;;;3.50;;
27758;SDS011;15148;48.972;12.794;2023-07-31T19:00:14;6.80;;;3.42;;
27758;SDS011;15148;48.972;12.794;2023-07-31T19:05:17;6.00;;;3.08;;
27758;SDS011;15148;48.972;12.794;2023-07-31T19:10:20;4.03;;;3.15;;
27758;SDS011;15148;48.972;12.794;2023-07-31T19:15:22;4.20;;;3.78;;
27758;SDS011;15148;48.972;12.794;2023-07-31T19:20:24;5.97;;;3.50;;
27758;SDS011;15148;48.972;12.794;2023-07-31T19:25:26;5.68;;;3.20;;
27758;SDS011;15148;48.972;12.794;2023-07-31T19:30:28;7.38;;;4.03;;
27758;SDS011;15148;48.972;12.794;2023-07-31T19:35:30;6.07;;;3.35;;
27758;SDS011;15148;48.972;12.794;2023-07-31T19:40:32;3.88;;;3.22;;
27758;SDS011;15148;48.972;12.794;2023-07-31T19:45:34;7.40;;;3.30;;
27758;SDS011;15148;48.972;12.794;2023-07-31T19:50:36;4.07;;;3.33;;
27758;SDS011;15148;48.972;12.794;2023-07-31T19:55:38;12.60;;;6.95;;
27758;SDS011;15148;48.972;12.794;2023-07-31T20:00:40;5.90;;;3.45;;
27758;SDS011;15148;48.972;12.794;2023-07-31T20:05:42;7.72;;;3.90;;
27758;SDS011;15148;48.972;12.794;2023-07-31T20:10:45;3.78;;;3.42;;
27758;SDS011;15148;48.972;12.794;2023-07-31T20:15:46;3.95;;;3.20;;
27758;SDS011;15148;48.972;12.794;2023-07-31T20:20:48;6.97;;;4.15;;
27758;SDS011;15148;48.972;12.794;2023-07-31T20:25:50;6.30;;;3.80;;
27758;SDS011;15148;48.972;12.794;2023-07-31T20:30:52;4.05;;;3.50;;
27758;SDS011;15148;48.972;12.794;2023-07-31T20:35:54;4.80;;;3.40;;
27758;SDS011;15148;48.972;12.794;2023-07-31T20:40:56;5.38;;;3.75;;
27758;SDS011;15148;48.972;12.794;2023-07-31T20:45:57;5.03;;;3.72;;
27758;SDS011;15148;48.972;12.794;2023-07-31T20:51:00;5.07;;;3.55;;
27758;SDS011;15148;48.972;12.794;2023-07-31T20:56:02;8.25;;;5.65;;
27758;SDS011;15148;48.972;12.794;2023-07-31T21:01:04;5.07;;;3.78;;
27758;SDS011;15148;48.972;12.794;2023-07-31T21:06:07;8.40;;;3.78;;
27758;SDS011;15148;48.972;12.794;2023-07-31T21:11:09;4.68;;;3.63;;
27758;SDS011;15148;48.972;12.794;2023-07-31T21:16:11;5.07;;;3.75;;
27758;SDS011;15148;48.972;12.794;2023-07-31T21:21:13;8.00;;;3.63;;
27758;SDS011;15148;48.972;12.794;2023-07-31T21:26:15;5.57;;;3.33;;
27758;SDS011;15148;48.972;12.794;2023-07-31T21:31:17;5.82;;;3.90;;
27758;SDS011;15148;48.972;12.794;2023-07-31T21:36:19;8.07;;;3.50;;
27758;SDS011;15148;48.972;12.794;2023-07-31T21:41:21;4.70;;;3.42;;
27758;SDS011;15148;48.972;12.794;2023-07-31T21:46:23;5.35;;;3.90;;
27758;SDS011;15148;48.972;12.794;2023-07-31T21:51:25;5.07;;;3.92;;
27758;SDS011;15148;48.972;12.794;2023-07-31T21:56:27;6.45;;;4.18;;
27758;SDS011;15148;48.972;12.794;2023-07-31T22:01:28;6.93;;;4.22;;
27758;SDS011;15148;48.972;12.794;2023-07-31T22:06:30;10.70;;;3.95;;
27758;SDS011;15148;48.972;12.794;2023-07-31T22:11:32;5.88;;;3.80;;
27758;SDS011;15148;48.972;12.794;2023-07-31T22:16:34;8.63;;;4.00;;
27758;SDS011;15148;48.972;12.794;2023-07-31T22:21:38;3.72;;;3.25;;
27758;SDS011;15148;48.972;12.794;2023-07-31T22:26:40;8.25;;;3.97;;
27758;SDS011;15148;48.972;12.794;2023-07-31T22:31:42;6.00;;;3.33;;
27758;SDS011;15148;48.972;12.794;2023-07-31T22:36:44;7.78;;;4.15;;
27758;SDS011;15148;48.972;12.794;2023-07-31T22:41:46;5.60;;;3.55;;
27758;SDS011;15148;48.972;12.794;2023-07-31T22:46:48;7.03;;;3.55;;
27758;SDS011;15148;48.972;12.794;2023-07-31T22:51:50;7.50;;;4.25;;
27758;SDS011;15148;48.972;12.794;2023-07-31T22:56:52;7.82;;;4.22;;
27758;SDS011;15148;48.972;12.794;2023-07-31T23:01:56;6.20;;;4.10;;
27758;SDS011;15148;48.972;12.794;2023-07-31T23:06:58;5.25;;;3.80;;
27758;SDS011;15148;48.972;12.794;2023-07-31T23:12:00;9.90;;;4.35;;
27758;SDS011;15148;48.972;12.794;2023-07-31T23:17:02;7.75;;;4.18;;
27758;SDS011;15148;48.972;12.794;2023-07-31T23:22:04;5.80;;;4.10;;
27758;SDS011;15148;48.972;12.794;2023-07-31T23:27:06;6.63;;;4.10;;
27758;SDS011;15148;48.972;12.794;2023-07-31T23:32:08;9.23;;;4.60;;
27758;SDS011;15148;48.972;12.794;2023-07-31T23:37:12;5.82;;;4.03;;
27758;SDS011;15148;48.972;12.794;2023-07-31T23:42:13;6.70;;;4.35;;
27758;SDS011;15148;48.972;12.794;2023-07-31T23:47:15;6.40;;;4.40;;
27758;SDS011;15148;48.972;12.794;2023-07-31T23:52:17;5.97;;;4.38;;
27758;SDS011;15148;48.972;12.794;2023-07-31T23:57:19;7.65;;;4.20;;
